createdAt,value
2022-08-22T00:02:34.640Z,6.93
2022-08-22T00:02:42.244Z,1.50
2022-08-22T00:02:47.157Z,1.70
2022-08-22T00:02:54.636Z,0.60
2022-08-22T00:02:58.171Z,2.53
2022-08-22T00:03:00.472Z,0.40
2022-08-22T00:03:09.333Z,2.77
2022-08-22T00:03:10.470Z,0.80
2022-08-22T00:03:10.730Z,0.93
2022-08-22T00:03:15.349Z,3.63
2022-08-22T00:05:12.020Z,7.97
2022-08-22T00:07:47.397Z,6.50
2022-08-22T00:10:25.320Z,6.60
2022-08-22T00:13:01.903Z,8.07
2022-08-22T00:15:43.248Z,6.63
2022-08-22T00:18:17.504Z,7.20
2022-08-22T00:20:50.409Z,8.50
2022-08-22T00:23:23.905Z,7.23
2022-08-22T00:26:00.313Z,7.50
2022-08-22T00:28:34.977Z,8.43
2022-08-22T00:31:12.125Z,7.90
2022-08-22T00:33:46.206Z,9.37
2022-08-22T00:36:20.041Z,9.43
2022-08-22T00:38:54.138Z,9.03
2022-08-22T00:42:05.491Z,10.17
2022-08-22T00:45:00.362Z,8.60
2022-08-22T00:48:03.664Z,10.33
2022-08-22T00:50:53.857Z,9.80
2022-08-22T00:53:54.258Z,9.53
2022-08-22T00:56:48.157Z,9.10
2022-08-22T00:59:35.352Z,10.37
2022-08-22T01:02:14.596Z,9.40
2022-08-22T01:04:53.347Z,11.17
2022-08-22T01:07:50.541Z,9.83
2022-08-22T01:10:36.769Z,8.73
2022-08-22T01:13:25.189Z,11.90
2022-08-22T01:16:06.253Z,9.77
2022-08-22T01:19:07.103Z,7.13
2022-08-22T01:22:19.222Z,7.60
2022-08-22T01:25:31.046Z,9.77
2022-08-22T01:28:47.310Z,10.13
2022-08-22T01:31:52.145Z,9.37
2022-08-22T01:34:54.831Z,7.50
2022-08-22T01:38:07.529Z,6.23
2022-08-22T01:41:28.517Z,11.97
2022-08-22T01:44:29.929Z,6.63
2022-08-22T01:47:02.937Z,10.80
2022-08-22T01:49:40.807Z,8.53
2022-08-22T01:52:15.420Z,7.33
2022-08-22T01:54:54.735Z,7.33
2022-08-22T01:57:24.401Z,8.93
2022-08-22T01:59:57.051Z,6.57
2022-08-22T02:02:40.980Z,9.40
2022-08-22T02:05:19.956Z,9.57
2022-08-22T02:08:02.013Z,12.90
2022-08-22T02:10:46.904Z,9.20
2022-08-22T02:13:29.845Z,13.33
2022-08-22T02:16:09.213Z,11.13
2022-08-22T02:18:51.150Z,11.33
2022-08-22T02:21:25.540Z,11.87
2022-08-22T02:23:59.381Z,10.30
2022-08-22T02:26:38.492Z,12.77
2022-08-22T02:29:21.982Z,9.70
2022-08-22T02:31:57.662Z,10.87
2022-08-22T02:34:34.913Z,9.30
2022-08-22T02:37:10.000Z,9.57
2022-08-22T02:39:45.351Z,11.63
2022-08-22T02:42:23.610Z,17.17
2022-08-22T02:44:58.705Z,11.20
2022-08-22T02:47:33.490Z,9.00
2022-08-22T02:50:13.197Z,11.80
2022-08-22T02:52:52.401Z,14.50
2022-08-22T02:55:35.495Z,9.77
2022-08-22T02:58:09.866Z,8.73
2022-08-22T03:00:48.796Z,11.07
2022-08-22T03:03:22.710Z,8.80
2022-08-22T03:06:01.745Z,10.37
2022-08-22T03:08:32.982Z,14.07
2022-08-22T03:11:20.912Z,9.50
2022-08-22T03:13:56.760Z,10.00
2022-08-22T03:16:32.307Z,13.00
2022-08-22T03:19:18.717Z,13.63
2022-08-22T03:21:53.403Z,12.13
2022-08-22T03:24:32.447Z,9.97
2022-08-22T03:27:07.166Z,12.73
2022-08-22T03:29:38.767Z,11.40
2022-08-22T03:32:12.452Z,11.57
2022-08-22T03:34:56.532Z,12.40
2022-08-22T03:37:39.108Z,12.13
2022-08-22T03:40:21.980Z,11.90
2022-08-22T03:43:23.884Z,13.17
2022-08-22T03:46:18.619Z,13.23
2022-08-22T03:49:22.124Z,12.73
2022-08-22T08:28:59.624Z,10.13
2022-08-22T08:31:34.082Z,14.97
2022-08-22T08:34:07.458Z,14.80
2022-08-22T08:36:40.486Z,18.17
2022-08-22T08:39:23.798Z,19.90
2022-08-22T08:42:17.347Z,18.90
2022-08-22T08:45:24.580Z,19.57
2022-08-22T08:48:18.271Z,19.33
2022-08-22T08:50:59.299Z,18.87
2022-08-22T08:54:03.658Z,18.70
2022-08-22T08:56:39.325Z,18.27
2022-08-22T08:59:26.949Z,18.13
2022-08-22T09:02:20.429Z,18.30
2022-08-22T09:05:27.048Z,18.33
2022-08-22T09:08:24.644Z,17.90
2022-08-22T09:11:14.653Z,17.67
2022-08-22T09:14:00.654Z,18.83
2022-08-22T09:16:53.473Z,18.77
2022-08-22T09:19:51.997Z,18.37
2022-08-22T09:23:04.933Z,17.57
2022-08-22T09:25:46.273Z,17.50
2022-08-22T09:28:19.614Z,17.93
2022-08-22T09:31:17.014Z,17.93
2022-08-22T09:34:09.949Z,16.17
2022-08-22T09:36:55.544Z,16.47
2022-08-22T09:39:33.627Z,18.97
2022-08-22T09:42:17.483Z,17.90
2022-08-22T09:45:09.266Z,18.60
2022-08-22T09:47:42.049Z,18.00
2022-08-22T09:50:17.698Z,16.53
2022-08-22T09:53:07.441Z,19.53
2022-08-22T09:55:45.462Z,19.77
2022-08-22T09:58:23.511Z,15.57
2022-08-22T10:00:56.160Z,20.97
2022-08-22T10:03:33.708Z,17.93
2022-08-22T10:06:05.771Z,17.90
2022-08-22T10:08:48.564Z,16.83
2022-08-22T10:11:24.528Z,14.30
2022-08-22T10:14:06.427Z,18.60
2022-08-22T10:16:58.477Z,15.47
2022-08-22T10:19:31.973Z,15.03
2022-08-22T10:22:39.955Z,15.67
2022-08-22T10:25:31.070Z,14.57
2022-08-22T10:28:14.201Z,13.30
2022-08-22T10:30:52.107Z,13.20
2022-08-22T10:33:29.046Z,12.93
2022-08-22T10:36:04.815Z,16.40
2022-08-22T10:38:46.683Z,12.77
2022-08-22T10:41:28.557Z,12.97
2022-08-22T10:44:03.883Z,14.07
2022-08-22T10:46:39.626Z,11.90
2022-08-22T10:49:17.929Z,12.83
2022-08-22T10:51:52.868Z,13.57
2022-08-22T10:54:48.369Z,12.73
2022-08-22T10:57:33.466Z,12.43
2022-08-22T11:00:09.111Z,11.73
2022-08-22T11:02:44.910Z,14.93
2022-08-22T11:05:35.375Z,12.80
2022-08-22T11:08:54.288Z,12.90
2022-08-22T11:11:39.144Z,12.00
2022-08-22T11:14:38.536Z,11.70
2022-08-22T11:17:28.921Z,13.87
2022-08-22T11:20:12.251Z,15.87
2022-08-22T11:22:48.854Z,15.90
2022-08-22T11:25:42.473Z,16.80
2022-08-22T11:28:34.258Z,16.87
2022-08-22T11:31:12.306Z,18.50
2022-08-22T11:33:49.438Z,19.10
2022-08-22T11:36:31.086Z,20.03
2022-08-22T11:39:24.449Z,19.90
2022-08-22T11:42:00.450Z,17.50
2022-08-22T11:44:32.298Z,17.63
2022-08-22T11:47:09.764Z,18.30
2022-08-22T11:49:57.028Z,17.93
2022-08-22T11:52:34.761Z,20.20
2022-08-22T11:55:20.193Z,17.57
2022-08-22T11:57:53.674Z,18.37
2022-08-22T12:00:32.337Z,16.53
2022-08-22T12:03:27.141Z,15.83
2022-08-22T12:06:02.379Z,17.83
2022-08-22T12:09:17.843Z,14.70
2022-08-22T12:12:04.595Z,14.57
2022-08-22T12:14:40.417Z,12.53
2022-08-22T12:17:55.698Z,13.90
2022-08-22T12:20:58.430Z,12.25
2022-08-22T12:23:49.311Z,12.98
2022-08-22T12:26:30.574Z,13.00
2022-08-22T12:29:15.572Z,12.38
2022-08-22T12:32:27.739Z,11.55
2022-08-22T12:35:18.075Z,10.88
2022-08-22T12:37:56.219Z,10.93
2022-08-22T12:40:36.345Z,10.75
2022-08-22T12:43:21.824Z,10.70
2022-08-22T12:46:14.235Z,10.90
2022-08-22T12:49:07.387Z,10.65
2022-08-22T12:51:44.296Z,10.68
2022-08-22T12:54:55.188Z,11.52
2022-08-22T12:57:34.706Z,10.75
2022-08-22T13:00:22.976Z,10.77
2022-08-22T13:02:54.941Z,11.88
2022-08-22T13:05:25.504Z,10.77
2022-08-22T13:07:59.170Z,12.02
2022-08-22T13:10:39.933Z,12.15
2022-08-22T13:13:12.793Z,10.65
2022-08-22T13:15:53.638Z,16.45
2022-08-22T13:18:30.459Z,11.73
2022-08-22T13:21:15.061Z,13.25
2022-08-22T13:23:45.975Z,12.57
2022-08-22T13:26:26.980Z,11.45
2022-08-22T13:32:08.076Z,12.05
2022-08-22T13:34:43.747Z,12.38
2022-08-22T13:37:16.301Z,11.80
2022-08-22T13:39:49.138Z,11.05
2022-08-22T13:42:30.277Z,12.85
2022-08-22T13:45:03.121Z,10.98
2022-08-22T13:47:39.625Z,10.02
2022-08-22T13:50:14.520Z,11.25
2022-08-22T13:52:49.390Z,10.40
2022-08-22T13:55:29.533Z,10.52
2022-08-22T13:58:11.093Z,13.23
2022-08-22T14:01:08.763Z,10.30
2022-08-22T14:03:42.992Z,10.13
2022-08-22T14:06:37.337Z,10.90
2022-08-22T14:09:29.342Z,10.52
2022-08-22T14:12:12.255Z,10.57
2022-08-22T14:14:46.408Z,10.02
2022-08-22T14:17:27.110Z,9.63
2022-08-22T14:20:01.628Z,9.82
2022-08-22T14:22:34.959Z,12.07
2022-08-22T14:25:07.881Z,12.30
2022-08-22T14:27:39.916Z,11.75
2022-08-22T14:30:16.821Z,12.40
2022-08-22T14:32:54.137Z,10.88
2022-08-22T14:35:34.714Z,11.43
2022-08-22T14:38:27.407Z,11.63
2022-08-22T14:41:03.181Z,12.27
2022-08-22T14:43:47.709Z,11.10
2022-08-22T14:46:26.655Z,11.43
2022-08-22T14:49:14.556Z,11.60
2022-08-22T14:51:50.790Z,13.70
2022-08-22T14:54:21.946Z,12.05
2022-08-22T14:56:54.153Z,12.77
2022-08-22T14:59:39.480Z,11.63
2022-08-22T15:02:13.981Z,11.02
2022-08-22T15:04:45.416Z,12.05
2022-08-22T15:07:23.940Z,12.68
2022-08-22T15:09:55.686Z,12.13
2022-08-22T15:12:28.685Z,11.93
2022-08-22T15:14:59.601Z,12.48
2022-08-22T15:17:45.029Z,13.73
2022-08-22T15:20:27.974Z,11.75
2022-08-22T15:22:59.073Z,11.20
2022-08-22T15:25:31.364Z,13.48
2022-08-22T15:28:05.028Z,10.90
2022-08-22T15:30:44.532Z,11.50
2022-08-22T15:33:18.828Z,10.75
2022-08-22T15:35:54.161Z,11.25
2022-08-22T15:38:30.108Z,10.50
2022-08-22T15:41:36.300Z,9.82
2022-08-22T15:44:14.970Z,10.75
2022-08-22T15:47:02.609Z,9.23
2022-08-22T15:49:37.679Z,11.15
2022-08-22T15:52:21.822Z,10.27
2022-08-22T15:55:22.570Z,10.95
2022-08-22T15:58:02.826Z,12.52
2022-08-22T16:00:43.311Z,11.90
2022-08-22T16:03:24.353Z,13.52
2022-08-22T16:05:57.363Z,14.10
2022-08-22T16:08:32.631Z,13.55
2022-08-22T16:11:27.541Z,15.50
2022-08-22T16:14:18.936Z,15.13
2022-08-22T16:17:04.928Z,15.93
2022-08-22T16:19:35.067Z,14.57
2022-08-22T16:22:13.293Z,14.05
2022-08-22T16:25:17.064Z,13.77
2022-08-22T16:28:02.188Z,14.23
2022-08-22T16:30:44.486Z,13.82
2022-08-22T16:33:28.445Z,16.67
2022-08-22T16:36:20.196Z,15.75
2022-08-22T16:38:55.271Z,17.30
2022-08-22T16:41:42.493Z,17.40
2022-08-22T16:44:43.577Z,17.60
2022-08-22T16:47:17.890Z,17.25
2022-08-22T16:50:05.188Z,18.85
2022-08-22T16:52:58.651Z,19.92
2022-08-22T16:56:18.027Z,19.83
2022-08-22T16:59:22.928Z,18.80
2022-08-22T17:02:22.234Z,20.25
2022-08-22T17:05:03.193Z,23.30
2022-08-22T17:07:46.191Z,22.15
2022-08-22T17:10:32.892Z,24.27
2022-08-22T17:13:13.286Z,24.25
2022-08-22T17:15:54.637Z,24.07
2022-08-22T17:18:45.013Z,22.38
2022-08-22T17:21:25.636Z,24.67
2022-08-22T17:24:02.930Z,23.77
2022-08-22T17:26:48.867Z,24.45
2022-08-22T17:29:41.418Z,24.37
2022-08-22T17:32:18.731Z,24.63
2022-08-22T17:34:57.932Z,22.37
2022-08-22T17:37:39.142Z,24.97
2022-08-22T17:40:21.036Z,24.57
2022-08-22T17:43:10.112Z,24.17
2022-08-22T17:45:55.241Z,26.27
2022-08-22T17:48:28.149Z,25.10
2022-08-22T17:51:02.533Z,24.83
2022-08-22T17:53:38.776Z,24.57
2022-08-22T17:56:15.445Z,24.57
2022-08-22T17:58:49.705Z,25.30
2022-08-22T18:01:35.607Z,24.20
2022-08-22T18:04:07.426Z,24.13
2022-08-22T18:06:38.250Z,23.67
2022-08-22T18:09:14.135Z,24.77
2022-08-22T18:11:48.253Z,26.33
2022-08-22T18:14:28.343Z,27.53
2022-08-22T18:17:00.861Z,25.17
2022-08-22T18:19:53.983Z,26.80
2022-08-22T18:22:29.680Z,24.30
2022-08-22T18:25:02.782Z,24.80
2022-08-22T18:27:36.450Z,24.03
2022-08-22T18:30:16.247Z,26.67
2022-08-22T18:32:53.692Z,25.47
2022-08-22T18:35:26.156Z,25.30
2022-08-22T18:38:19.189Z,26.53
2022-08-22T18:40:53.470Z,26.70
2022-08-22T18:43:26.711Z,26.03
2022-08-22T18:46:03.283Z,28.90
2022-08-22T18:48:54.295Z,31.07
2022-08-22T18:51:34.879Z,28.57
2022-08-22T18:54:29.858Z,27.87
2022-08-22T18:57:06.877Z,31.20
2022-08-22T18:59:46.561Z,28.83
2022-08-22T19:02:55.794Z,35.23
2022-08-22T19:06:08.255Z,30.70
2022-08-22T19:09:08.819Z,36.20
2022-08-22T19:11:47.073Z,33.33
2022-08-22T19:14:27.709Z,30.90
2022-08-22T19:17:17.232Z,35.57
2022-08-22T19:20:12.640Z,33.43
2022-08-22T19:22:42.141Z,35.73
2022-08-22T19:25:21.630Z,35.07
2022-08-22T19:28:26.732Z,29.13
2022-08-22T19:31:22.394Z,36.17
2022-08-22T19:34:11.823Z,31.23
2022-08-22T19:36:39.992Z,36.43
2022-08-22T19:39:10.674Z,30.67
2022-08-22T19:41:53.953Z,29.40
2022-08-22T19:44:39.844Z,27.63
2022-08-22T19:47:25.100Z,23.43
2022-08-22T19:50:09.345Z,21.83
2022-08-22T19:52:47.866Z,24.63
2022-08-22T19:55:29.206Z,25.13
2022-08-22T19:58:07.042Z,21.60
2022-08-22T20:00:53.708Z,18.77
2022-08-22T20:03:32.888Z,22.40
2022-08-22T20:06:21.973Z,17.30
2022-08-22T20:09:13.251Z,16.27
2022-08-22T20:11:56.701Z,17.67
2022-08-22T20:14:30.666Z,15.23
2022-08-22T20:17:11.878Z,15.23
2022-08-22T20:22:42.467Z,12.53
2022-08-22T20:25:41.718Z,10.87
2022-08-22T20:28:09.589Z,9.70
2022-08-22T20:30:41.617Z,10.47
2022-08-22T20:33:12.905Z,10.97
2022-08-22T20:35:44.400Z,13.37
2022-08-22T20:38:16.143Z,12.83
2022-08-22T20:40:56.345Z,13.53
2022-08-22T20:43:34.327Z,19.30
2022-08-22T20:46:13.541Z,11.67
2022-08-22T20:48:45.829Z,8.80
2022-08-22T20:51:17.336Z,6.30
2022-08-22T20:53:54.505Z,6.30
2022-08-22T20:56:37.304Z,5.27
2022-08-22T20:59:22.594Z,3.53
2022-08-22T21:01:58.095Z,5.63
2022-08-22T21:04:31.159Z,3.00
2022-08-22T21:07:02.781Z,3.17
2022-08-22T21:09:48.869Z,3.27
2022-08-22T21:12:16.944Z,2.93
2022-08-22T21:14:47.029Z,4.50
2022-08-22T21:17:23.329Z,3.43
2022-08-22T21:19:54.345Z,3.33
2022-08-22T21:22:32.655Z,4.07
2022-08-22T21:25:01.781Z,2.80
2022-08-22T21:27:32.830Z,4.60
2022-08-22T21:30:07.134Z,2.90
2022-08-22T21:32:42.845Z,3.47
2022-08-22T21:35:25.990Z,3.00
2022-08-22T21:37:54.452Z,2.80
2022-08-22T21:40:26.578Z,4.13
2022-08-22T21:43:06.096Z,3.30
2022-08-22T21:45:42.336Z,3.30
2022-08-22T21:48:33.405Z,2.87
2022-08-22T21:51:28.503Z,3.17
2022-08-22T21:54:39.592Z,2.87
2022-08-22T21:57:33.758Z,2.90
2022-08-22T22:00:08.381Z,2.80
2022-08-22T22:02:40.127Z,2.90
2022-08-22T22:05:11.665Z,2.80
2022-08-22T22:07:49.376Z,3.10
2022-08-22T22:10:19.559Z,3.73
2022-08-22T22:12:49.262Z,2.97
2022-08-22T22:15:26.418Z,2.90
2022-08-22T22:17:56.743Z,2.90
2022-08-22T22:20:26.143Z,3.23
2022-08-22T22:22:54.509Z,3.20
2022-08-22T22:25:40.786Z,2.50
2022-08-22T22:28:12.298Z,2.90
2022-08-22T22:30:41.262Z,2.40
2022-08-22T22:33:11.054Z,3.13
2022-08-22T22:35:41.045Z,2.90
2022-08-22T22:38:09.557Z,3.10
2022-08-22T22:40:37.769Z,2.63
2022-08-22T22:43:06.061Z,3.13
2022-08-22T22:45:35.870Z,2.57
2022-08-22T22:48:04.275Z,2.80
2022-08-22T22:50:33.854Z,2.60
2022-08-22T22:53:04.469Z,3.10
2022-08-22T22:55:32.909Z,2.50
2022-08-22T22:58:01.331Z,3.03
2022-08-22T23:00:38.457Z,2.93
2022-08-22T23:03:07.442Z,2.80
2022-08-22T23:05:37.280Z,3.27
2022-08-22T23:08:05.765Z,2.40
2022-08-22T23:10:34.468Z,2.83
2022-08-22T23:13:02.738Z,2.90
2022-08-22T23:15:30.786Z,2.40
2022-08-22T23:17:59.100Z,3.73
2022-08-22T23:20:27.306Z,2.73
2022-08-22T23:22:56.742Z,2.90
2022-08-22T23:25:24.760Z,2.87
2022-08-22T23:27:54.328Z,3.00
2022-08-22T23:30:29.438Z,2.53
2022-08-22T23:32:57.470Z,2.40
2022-08-22T23:35:25.493Z,3.23
2022-08-22T23:37:53.575Z,2.80
2022-08-22T23:40:23.020Z,2.67
2022-08-22T23:42:51.081Z,3.07
2022-08-22T23:45:19.321Z,2.83
2022-08-22T23:47:47.496Z,3.80
2022-08-22T23:50:15.565Z,3.27
2022-08-22T23:52:43.614Z,2.80
2022-08-22T23:55:11.696Z,4.23
2022-08-22T23:57:41.257Z,4.17
